sensor_id;sensor_type;location;lat;lon;timestamp;pressure;altitude;pressure_sealevel;temperature;humidity
69848;BME280;57143;55.940;37.496;2023-04-27T00:00:18;97506.69;;;9.80;100.00
69848;BME280;57143;55.940;37.496;2023-04-27T00:02:45;97515.59;;;9.80;100.00
69848;BME280;57143;55.940;37.496;2023-04-27T00:05:13;97514.81;;;9.80;100.00
69848;BME280;57143;55.940;37.496;2023-04-27T00:07:41;97522.94;;;9.80;100.00
69848;BME280;57143;55.940;37.496;2023-04-27T00:10:09;97525.63;;;9.80;100.00
69848;BME280;57143;55.940;37.496;2023-04-27T00:12:36;97526.13;;;9.77;100.00
69848;BME280;57143;55.940;37.496;2023-04-27T00:15:04;97536.44;;;9.75;100.00
69848;BME280;57143;55.940;37.496;2023-04-27T00:17:32;97518.53;;;9.64;100.00
69848;BME280;57143;55.940;37.496;2023-04-27T00:19:59;97532.91;;;9.69;100.00
69848;BME280;57143;55.940;37.496;2023-04-27T00:22:26;97534.22;;;9.67;100.00
69848;BME280;57143;55.940;37.496;2023-04-27T00:24:55;97529.63;;;9.67;100.00
69848;BME280;57143;55.940;37.496;2023-04-27T00:27:22;97544.47;;;9.65;100.00
69848;BME280;57143;55.940;37.496;2023-04-27T00:29:49;97526.91;;;9.57;100.00
69848;BME280;57143;55.940;37.496;2023-04-27T00:32:16;97537.72;;;9.62;100.00
69848;BME280;57143;55.940;37.496;2023-04-27T00:34:43;97543.13;;;9.57;100.00
69848;BME280;57143;55.940;37.496;2023-04-27T00:37:10;97543.66;;;9.54;100.00
69848;BME280;57143;55.940;37.496;2023-04-27T00:39:37;97547.44;;;9.58;100.00
69848;BME280;57143;55.940;37.496;2023-04-27T00:42:06;97550.13;;;9.53;100.00
69848;BME280;57143;55.940;37.496;2023-04-27T00:44:37;97550.91;;;9.49;100.00
69848;BME280;57143;55.940;37.496;2023-04-27T00:47:05;97550.38;;;9.47;100.00
69848;BME280;57143;55.940;37.496;2023-04-27T00:49:32;97554.41;;;9.49;100.00
69848;BME280;57143;55.940;37.496;2023-04-27T00:51:59;97547.09;;;9.45;100.00
69848;BME280;57143;55.940;37.496;2023-04-27T00:54:26;97547.41;;;9.48;100.00
69848;BME280;57143;55.940;37.496;2023-04-27T00:56:54;97540.88;;;9.44;100.00
69848;BME280;57143;55.940;37.496;2023-04-27T00:59:22;97544.41;;;9.45;100.00
69848;BME280;57143;55.940;37.496;2023-04-27T01:01:50;97535.72;;;9.43;100.00
69848;BME280;57143;55.940;37.496;2023-04-27T01:04:17;97540.34;;;9.42;100.00
69848;BME280;57143;55.940;37.496;2023-04-27T01:06:45;97529.75;;;9.35;100.00
69848;BME280;57143;55.940;37.496;2023-04-27T01:09:12;97548.16;;;9.39;100.00
69848;BME280;57143;55.940;37.496;2023-04-27T01:11:41;97550.88;;;9.39;100.00
69848;BME280;57143;55.940;37.496;2023-04-27T01:14:08;97548.16;;;9.33;100.00
69848;BME280;57143;55.940;37.496;2023-04-27T01:16:37;97543.00;;;9.37;100.00
69848;BME280;57143;55.940;37.496;2023-04-27T01:19:06;97536.25;;;9.34;100.00
69848;BME280;57143;55.940;37.496;2023-04-27T01:21:33;97537.59;;;9.37;100.00
69848;BME280;57143;55.940;37.496;2023-04-27T01:24:03;97532.16;;;9.32;100.00
69848;BME280;57143;55.940;37.496;2023-04-27T01:26:30;97538.66;;;9.31;100.00
69848;BME280;57143;55.940;37.496;2023-04-27T01:28:58;97527.84;;;9.31;100.00
69848;BME280;57143;55.940;37.496;2023-04-27T01:31:25;97518.91;;;9.30;100.00
69848;BME280;57143;55.940;37.496;2023-04-27T01:33:54;97528.94;;;9.30;100.00
69848;BME280;57143;55.940;37.496;2023-04-27T01:36:22;97518.13;;;9.30;100.00
69848;BME280;57143;55.940;37.496;2023-04-27T01:38:49;97522.19;;;9.38;100.00
69848;BME280;57143;55.940;37.496;2023-04-27T01:41:18;97523.81;;;9.33;100.00
69848;BME280;57143;55.940;37.496;2023-04-27T01:43:45;97519.16;;;9.24;100.00
69848;BME280;57143;55.940;37.496;2023-04-27T01:46:13;97526.47;;;9.28;100.00
69848;BME280;57143;55.940;37.496;2023-04-27T01:48:42;97518.03;;;9.20;100.00
69848;BME280;57143;55.940;37.496;2023-04-27T01:51:09;97520.22;;;9.18;100.00
69848;BME280;57143;55.940;37.496;2023-04-27T01:53:36;97528.34;;;9.23;100.00
69848;BME280;57143;55.940;37.496;2023-04-27T01:56:04;97536.13;;;9.14;100.00
69848;BME280;57143;55.940;37.496;2023-04-27T01:58:32;97530.16;;;9.12;100.00
69848;BME280;57143;55.940;37.496;2023-04-27T02:01:00;97531.50;;;9.10;100.00
69848;BME280;57143;55.940;37.496;2023-04-27T02:03:27;97522.53;;;9.04;100.00
69848;BME280;57143;55.940;37.496;2023-04-27T02:05:54;97533.59;;;9.03;100.00
69848;BME280;57143;55.940;37.496;2023-04-27T02:08:22;97526.31;;;9.03;100.00
69848;BME280;57143;55.940;37.496;2023-04-27T02:10:49;97515.25;;;9.05;100.00
69848;BME280;57143;55.940;37.496;2023-04-27T02:13:16;97497.44;;;9.09;100.00
69848;BME280;57143;55.940;37.496;2023-04-27T02:15:45;97487.22;;;9.16;100.00
69848;BME280;57143;55.940;37.496;2023-04-27T02:18:12;97474.28;;;9.23;100.00
69848;BME280;57143;55.940;37.496;2023-04-27T02:20:40;97478.16;;;9.42;100.00
69848;BME280;57143;55.940;37.496;2023-04-27T02:23:08;97466.09;;;9.75;100.00
69848;BME280;57143;55.940;37.496;2023-04-27T02:25:36;97460.19;;;10.08;100.00
69848;BME280;57143;55.940;37.496;2023-04-27T02:28:03;97454.28;;;10.46;100.00
69848;BME280;57143;55.940;37.496;2023-04-27T02:30:31;97448.00;;;10.91;100.00
69848;BME280;57143;55.940;37.496;2023-04-27T02:32:59;97440.06;;;11.24;100.00
69848;BME280;57143;55.940;37.496;2023-04-27T02:35:26;97471.31;;;11.81;100.00
69848;BME280;57143;55.940;37.496;2023-04-27T02:37:54;97486.00;;;12.18;100.00
69848;BME280;57143;55.940;37.496;2023-04-27T02:40:21;97521.91;;;12.54;100.00
69848;BME280;57143;55.940;37.496;2023-04-27T02:42:48;97581.09;;;13.01;100.00
69848;BME280;57143;55.940;37.496;2023-04-27T02:45:15;97647.50;;;13.33;100.00
69848;BME280;57143;55.940;37.496;2023-04-27T02:47:43;97707.03;;;13.68;100.00
69848;BME280;57143;55.940;37.496;2023-04-27T02:50:11;97755.84;;;13.93;100.00
69848;BME280;57143;55.940;37.496;2023-04-27T02:52:38;97825.59;;;14.23;100.00
69848;BME280;57143;55.940;37.496;2023-04-27T02:55:06;97892.69;;;14.53;100.00
69848;BME280;57143;55.940;37.496;2023-04-27T02:57:33;97931.72;;;14.77;100.00
69848;BME280;57143;55.940;37.496;2023-04-27T03:00:01;98004.59;;;15.00;100.00
69848;BME280;57143;55.940;37.496;2023-04-27T03:02:31;98026.50;;;15.19;100.00
69848;BME280;57143;55.940;37.496;2023-04-27T03:04:59;98089.78;;;15.59;100.00
69848;BME280;57143;55.940;37.496;2023-04-27T03:07:27;98138.34;;;15.91;100.00
69848;BME280;57143;55.940;37.496;2023-04-27T03:09:56;98192.53;;;16.31;100.00
69848;BME280;57143;55.940;37.496;2023-04-27T03:12:23;98228.13;;;16.78;100.00
69848;BME280;57143;55.940;37.496;2023-04-27T03:14:50;98284.38;;;16.89;100.00
69848;BME280;57143;55.940;37.496;2023-04-27T03:17:17;98299.72;;;16.85;100.00
69848;BME280;57143;55.940;37.496;2023-04-27T03:19:46;98321.91;;;16.84;100.00
69848;BME280;57143;55.940;37.496;2023-04-27T03:22:13;98339.03;;;16.94;100.00
69848;BME280;57143;55.940;37.496;2023-04-27T03:24:42;98344.38;;;17.04;100.00
69848;BME280;57143;55.940;37.496;2023-04-27T03:27:09;98320.91;;;16.98;100.00
69848;BME280;57143;55.940;37.496;2023-04-27T03:29:36;98350.03;;;17.55;100.00
69848;BME280;57143;55.940;37.496;2023-04-27T03:32:04;98341.97;;;18.01;100.00
69848;BME280;57143;55.940;37.496;2023-04-27T03:34:31;98331.59;;;17.98;100.00
69848;BME280;57143;55.940;37.496;2023-04-27T03:36:59;98335.00;;;18.08;100.00
69848;BME280;57143;55.940;37.496;2023-04-27T03:39:26;98339.50;;;18.18;100.00
69848;BME280;57143;55.940;37.496;2023-04-27T03:41:55;98339.38;;;18.41;100.00
69848;BME280;57143;55.940;37.496;2023-04-27T03:44:22;98361.25;;;18.47;100.00
69848;BME280;57143;55.940;37.496;2023-04-27T03:46:49;98376.44;;;18.71;100.00
69848;BME280;57143;55.940;37.496;2023-04-27T03:49:16;98373.16;;;19.15;100.00
69848;BME280;57143;55.940;37.496;2023-04-27T03:51:44;98362.25;;;19.50;100.00
69848;BME280;57143;55.940;37.496;2023-04-27T03:54:11;98374.16;;;19.60;100.00
69848;BME280;57143;55.940;37.496;2023-04-27T03:56:38;98372.44;;;19.64;100.00
69848;BME280;57143;55.940;37.496;2023-04-27T03:59:07;98379.91;;;19.85;100.00
69848;BME280;57143;55.940;37.496;2023-04-27T04:01:34;98384.31;;;20.22;100.00
69848;BME280;57143;55.940;37.496;2023-04-27T04:04:02;98405.31;;;20.40;100.00
69848;BME280;57143;55.940;37.496;2023-04-27T04:06:29;98405.44;;;20.35;100.00
69848;BME280;57143;55.940;37.496;2023-04-27T04:08:56;98399.59;;;20.50;100.00
69848;BME280;57143;55.940;37.496;2023-04-27T04:11:23;98386.19;;;20.57;100.00
69848;BME280;57143;55.940;37.496;2023-04-27T04:13:50;98385.81;;;20.72;100.00
69848;BME280;57143;55.940;37.496;2023-04-27T04:16:19;98378.88;;;20.83;100.00
69848;BME280;57143;55.940;37.496;2023-04-27T04:18:46;98376.16;;;20.61;100.00
69848;BME280;57143;55.940;37.496;2023-04-27T04:21:13;98359.00;;;20.86;100.00
69848;BME280;57143;55.940;37.496;2023-04-27T04:23:40;98376.41;;;21.04;100.00
69848;BME280;57143;55.940;37.496;2023-04-27T04:26:08;98354.16;;;21.22;100.00
69848;BME280;57143;55.940;37.496;2023-04-27T04:28:35;98352.53;;;21.30;100.00
69848;BME280;57143;55.940;37.496;2023-04-27T04:31:03;98347.03;;;21.38;100.00
69848;BME280;57143;55.940;37.496;2023-04-27T04:33:32;98317.91;;;21.63;100.00
69848;BME280;57143;55.940;37.496;2023-04-27T04:36:02;98304.78;;;21.77;100.00
69848;BME280;57143;55.940;37.496;2023-04-27T04:38:29;98275.25;;;21.69;100.00
69848;BME280;57143;55.940;37.496;2023-04-27T04:40:57;98266.34;;;21.81;100.00
69848;BME280;57143;55.940;37.496;2023-04-27T04:43:24;98264.25;;;21.77;100.00
69848;BME280;57143;55.940;37.496;2023-04-27T04:45:51;98236.66;;;21.95;100.00
69848;BME280;57143;55.940;37.496;2023-04-27T04:48:19;98202.69;;;22.11;100.00
69848;BME280;57143;55.940;37.496;2023-04-27T04:50:48;98170.72;;;22.48;100.00
69848;BME280;57143;55.940;37.496;2023-04-27T04:53:15;98105.41;;;22.60;100.00
69848;BME280;57143;55.940;37.496;2023-04-27T04:55:42;98085.38;;;22.63;100.00
69848;BME280;57143;55.940;37.496;2023-04-27T04:58:09;98077.50;;;22.74;100.00
69848;BME280;57143;55.940;37.496;2023-04-27T05:00:36;97844.00;;;23.01;100.00
69848;BME280;57143;55.940;37.496;2023-04-27T05:03:04;97177.28;;;22.84;100.00
69848;BME280;57143;55.940;37.496;2023-04-27T05:05:32;97203.78;;;23.36;100.00
69848;BME280;57143;55.940;37.496;2023-04-27T05:08:00;97213.13;;;23.47;100.00
69848;BME280;57143;55.940;37.496;2023-04-27T05:10:27;97148.44;;;23.51;100.00
69848;BME280;57143;55.940;37.496;2023-04-27T05:12:55;97117.34;;;23.04;100.00
69848;BME280;57143;55.940;37.496;2023-04-27T05:15:22;97086.03;;;23.16;100.00
69848;BME280;57143;55.940;37.496;2023-04-27T05:17:49;97069.47;;;22.81;100.00
69848;BME280;57143;55.940;37.496;2023-04-27T05:20:18;97044.94;;;22.45;100.00
69848;BME280;57143;55.940;37.496;2023-04-27T05:22:46;97000.84;;;22.64;100.00
69848;BME280;57143;55.940;37.496;2023-04-27T05:25:14;96935.78;;;22.85;100.00
69848;BME280;57143;55.940;37.496;2023-04-27T05:27:42;96884.06;;;22.82;100.00
69848;BME280;57143;55.940;37.496;2023-04-27T05:30:10;96844.03;;;22.96;100.00
69848;BME280;57143;55.940;37.496;2023-04-27T05:32:37;96807.41;;;22.99;100.00
69848;BME280;57143;55.940;37.496;2023-04-27T05:35:05;96727.06;;;23.33;100.00
69848;BME280;57143;55.940;37.496;2023-04-27T05:37:32;96692.06;;;23.18;100.00
69848;BME280;57143;55.940;37.496;2023-04-27T05:39:59;96656.06;;;23.15;100.00
69848;BME280;57143;55.940;37.496;2023-04-27T05:42:31;96629.69;;;23.17;100.00
69848;BME280;57143;55.940;37.496;2023-04-27T05:44:58;96590.50;;;23.38;100.00
69848;BME280;57143;55.940;37.496;2023-04-27T05:47:25;96571.31;;;23.22;100.00
69848;BME280;57143;55.940;37.496;2023-04-27T05:49:52;96564.28;;;22.99;100.00
69848;BME280;57143;55.940;37.496;2023-04-27T05:52:20;96548.78;;;22.90;100.00
69848;BME280;57143;55.940;37.496;2023-04-27T05:54:54;96515.94;;;23.15;100.00
69848;BME280;57143;55.940;37.496;2023-04-27T05:57:21;96534.63;;;23.55;100.00
69848;BME280;57143;55.940;37.496;2023-04-27T05:59:50;96568.34;;;23.34;100.00
69848;BME280;57143;55.940;37.496;2023-04-27T06:02:17;96560.50;;;23.73;100.00
69848;BME280;57143;55.940;37.496;2023-04-27T06:04:45;96560.28;;;23.52;100.00
69848;BME280;57143;55.940;37.496;2023-04-27T06:07:13;96467.50;;;23.25;100.00
69848;BME280;57143;55.940;37.496;2023-04-27T06:09:41;96422.72;;;23.09;100.00
69848;BME280;57143;55.940;37.496;2023-04-27T06:12:08;96422.75;;;22.79;100.00
69848;BME280;57143;55.940;37.496;2023-04-27T06:14:36;96402.81;;;22.92;100.00
69848;BME280;57143;55.940;37.496;2023-04-27T06:17:05;96499.09;;;22.94;100.00
69848;BME280;57143;55.940;37.496;2023-04-27T06:19:32;96544.16;;;22.98;100.00
69848;BME280;57143;55.940;37.496;2023-04-27T06:21:59;96631.25;;;23.44;100.00
69848;BME280;57143;55.940;37.496;2023-04-27T06:24:27;96683.22;;;23.61;100.00
69848;BME280;57143;55.940;37.496;2023-04-27T06:26:54;96689.19;;;23.63;100.00
69848;BME280;57143;55.940;37.496;2023-04-27T06:29:22;96743.38;;;23.68;100.00
69848;BME280;57143;55.940;37.496;2023-04-27T06:31:49;96772.47;;;23.84;100.00
69848;BME280;57143;55.940;37.496;2023-04-27T06:34:17;96821.19;;;23.66;100.00
69848;BME280;57143;55.940;37.496;2023-04-27T06:36:45;96713.56;;;23.28;100.00
69848;BME280;57143;55.940;37.496;2023-04-27T06:39:12;96724.03;;;22.93;100.00
69848;BME280;57143;55.940;37.496;2023-04-27T06:41:39;96722.28;;;23.30;100.00
69848;BME280;57143;55.940;37.496;2023-04-27T06:44:06;96667.25;;;22.73;100.00
69848;BME280;57143;55.940;37.496;2023-04-27T06:46:33;96693.22;;;22.91;100.00
69848;BME280;57143;55.940;37.496;2023-04-27T06:49:01;96648.47;;;22.82;100.00
69848;BME280;57143;55.940;37.496;2023-04-27T06:51:30;96513.09;;;22.78;100.00
69848;BME280;57143;55.940;37.496;2023-04-27T06:53:57;96477.91;;;22.72;100.00
69848;BME280;57143;55.940;37.496;2023-04-27T06:56:27;96445.13;;;22.70;100.00
69848;BME280;57143;55.940;37.496;2023-04-27T06:58:56;96536.97;;;22.93;100.00
69848;BME280;57143;55.940;37.496;2023-04-27T07:01:23;96464.56;;;22.77;100.00
69848;BME280;57143;55.940;37.496;2023-04-27T07:03:50;96567.91;;;22.76;100.00
69848;BME280;57143;55.940;37.496;2023-04-27T07:06:17;96628.19;;;22.71;100.00
69848;BME280;57143;55.940;37.496;2023-04-27T07:08:46;96680.16;;;22.65;100.00
69848;BME280;57143;55.940;37.496;2023-04-27T07:11:13;96810.34;;;22.86;100.00
69848;BME280;57143;55.940;37.496;2023-04-27T07:13:41;96905.47;;;22.89;100.00
69848;BME280;57143;55.940;37.496;2023-04-27T07:16:08;97423.31;;;22.76;100.00
69848;BME280;57143;55.940;37.496;2023-04-27T07:18:35;97787.84;;;22.97;100.00
69848;BME280;57143;55.940;37.496;2023-04-27T07:21:03;97812.38;;;23.10;100.00
69848;BME280;57143;55.940;37.496;2023-04-27T07:23:30;97822.81;;;22.92;100.00
69848;BME280;57143;55.940;37.496;2023-04-27T07:25:59;97882.34;;;23.71;100.00
69848;BME280;57143;55.940;37.496;2023-04-27T07:28:27;97948.78;;;24.07;100.00
69848;BME280;57143;55.940;37.496;2023-04-27T07:30:54;98019.75;;;23.79;100.00
69848;BME280;57143;55.940;37.496;2023-04-27T07:33:22;98058.38;;;23.75;100.00
69848;BME280;57143;55.940;37.496;2023-04-27T07:35:50;98065.63;;;23.35;100.00
69848;BME280;57143;55.940;37.496;2023-04-27T07:38:18;98051.13;;;23.18;100.00
69848;BME280;57143;55.940;37.496;2023-04-27T07:40:45;98124.91;;;23.05;100.00
69848;BME280;57143;55.940;37.496;2023-04-27T07:43:14;98142.03;;;23.19;100.00
69848;BME280;57143;55.940;37.496;2023-04-27T07:45:42;98100.16;;;23.09;100.00
69848;BME280;57143;55.940;37.496;2023-04-27T07:48:10;98092.66;;;23.09;100.00
69848;BME280;57143;55.940;37.496;2023-04-27T07:50:38;98186.19;;;23.07;100.00
69848;BME280;57143;55.940;37.496;2023-04-27T07:53:05;98175.91;;;22.87;100.00
69848;BME280;57143;55.940;37.496;2023-04-27T07:55:33;98165.81;;;23.12;100.00
69848;BME280;57143;55.940;37.496;2023-04-27T07:58:01;98198.72;;;23.05;100.00
69848;BME280;57143;55.940;37.496;2023-04-27T08:00:30;98219.00;;;22.88;100.00
69848;BME280;57143;55.940;37.496;2023-04-27T08:02:57;98252.09;;;22.97;100.00
69848;BME280;57143;55.940;37.496;2023-04-27T08:05:24;98260.38;;;22.97;100.00
69848;BME280;57143;55.940;37.496;2023-04-27T08:07:52;98279.16;;;23.12;100.00
69848;BME280;57143;55.940;37.496;2023-04-27T08:10:19;98305.31;;;23.52;100.00
69848;BME280;57143;55.940;37.496;2023-04-27T08:12:47;98290.84;;;23.17;100.00
69848;BME280;57143;55.940;37.496;2023-04-27T08:15:14;98322.47;;;22.99;100.00
69848;BME280;57143;55.940;37.496;2023-04-27T08:17:43;98289.94;;;23.05;100.00
69848;BME280;57143;55.940;37.496;2023-04-27T08:20:12;98309.19;;;22.84;100.00
69848;BME280;57143;55.940;37.496;2023-04-27T08:22:40;98350.94;;;23.37;100.00
69848;BME280;57143;55.940;37.496;2023-04-27T08:25:08;98370.31;;;23.37;100.00
69848;BME280;57143;55.940;37.496;2023-04-27T08:27:36;98369.88;;;23.18;100.00
69848;BME280;57143;55.940;37.496;2023-04-27T08:30:05;98387.03;;;23.41;100.00
69848;BME280;57143;55.940;37.496;2023-04-27T08:32:33;98363.16;;;23.36;100.00
69848;BME280;57143;55.940;37.496;2023-04-27T08:35:02;98389.03;;;23.23;100.00
69848;BME280;57143;55.940;37.496;2023-04-27T08:37:30;98393.19;;;23.46;100.00
69848;BME280;57143;55.940;37.496;2023-04-27T08:39:57;98374.47;;;23.52;100.00
69848;BME280;57143;55.940;37.496;2023-04-27T08:42:25;98378.84;;;23.53;100.00
69848;BME280;57143;55.940;37.496;2023-04-27T08:44:52;98370.97;;;22.88;100.00
69848;BME280;57143;55.940;37.496;2023-04-27T08:47:19;98365.16;;;22.47;100.00
69848;BME280;57143;55.940;37.496;2023-04-27T08:49:46;98313.56;;;22.13;100.00
69848;BME280;57143;55.940;37.496;2023-04-27T08:52:16;98289.22;;;21.98;100.00
69848;BME280;57143;55.940;37.496;2023-04-27T08:54:43;98279.31;;;22.06;100.00
69848;BME280;57143;55.940;37.496;2023-04-27T08:57:11;98283.97;;;21.62;100.00
69848;BME280;57143;55.940;37.496;2023-04-27T08:59:38;98300.75;;;21.83;100.00
69848;BME280;57143;55.940;37.496;2023-04-27T09:02:06;98291.66;;;21.83;100.00
69848;BME280;57143;55.940;37.496;2023-04-27T09:04:43;98270.69;;;21.73;100.00
69848;BME280;57143;55.940;37.496;2023-04-27T09:07:12;98255.94;;;21.60;100.00
69848;BME280;57143;55.940;37.496;2023-04-27T09:09:41;98243.28;;;21.76;100.00
69848;BME280;57143;55.940;37.496;2023-04-27T09:12:15;98231.13;;;21.69;100.00
69848;BME280;57143;55.940;37.496;2023-04-27T09:14:55;98211.47;;;21.28;100.00
69848;BME280;57143;55.940;37.496;2023-04-27T09:17:26;98216.69;;;21.29;100.00
69848;BME280;57143;55.940;37.496;2023-04-27T09:20:03;98203.84;;;21.42;100.00
69848;BME280;57143;55.940;37.496;2023-04-27T09:22:41;98242.00;;;21.57;100.00
69848;BME280;57143;55.940;37.496;2023-04-27T09:25:21;98246.84;;;21.60;100.00
69848;BME280;57143;55.940;37.496;2023-04-27T09:27:48;98243.44;;;21.63;100.00
69848;BME280;57143;55.940;37.496;2023-04-27T09:30:17;98217.31;;;21.52;100.00
69848;BME280;57143;55.940;37.496;2023-04-27T09:32:51;98221.88;;;21.56;100.00
69848;BME280;57143;55.940;37.496;2023-04-27T09:35:24;98150.53;;;21.38;100.00
69848;BME280;57143;55.940;37.496;2023-04-27T09:37:52;98158.28;;;21.70;100.00
69848;BME280;57143;55.940;37.496;2023-04-27T09:40:23;98201.41;;;21.74;100.00
69848;BME280;57143;55.940;37.496;2023-04-27T09:42:53;98204.50;;;21.64;100.00
69848;BME280;57143;55.940;37.496;2023-04-27T09:45:22;98169.16;;;21.24;100.00
69848;BME280;57143;55.940;37.496;2023-04-27T09:47:50;98150.19;;;21.39;100.00
69848;BME280;57143;55.940;37.496;2023-04-27T09:50:17;98167.72;;;21.60;100.00
69848;BME280;57143;55.940;37.496;2023-04-27T09:52:46;98125.38;;;21.48;100.00
69848;BME280;57143;55.940;37.496;2023-04-27T09:55:16;98049.16;;;21.43;100.00
69848;BME280;57143;55.940;37.496;2023-04-27T09:57:54;97980.19;;;21.60;100.00
69848;BME280;57143;55.940;37.496;2023-04-27T10:00:45;97939.38;;;21.74;100.00
69848;BME280;57143;55.940;37.496;2023-04-27T10:03:21;97780.19;;;21.34;100.00
69848;BME280;57143;55.940;37.496;2023-04-27T10:08:44;97475.38;;;21.09;100.00
69848;BME280;57143;55.940;37.496;2023-04-27T10:11:15;97340.41;;;20.88;100.00
69848;BME280;57143;55.940;37.496;2023-04-27T10:13:51;97212.97;;;21.12;100.00
69848;BME280;57143;55.940;37.496;2023-04-27T10:16:19;97136.53;;;20.97;100.00
69848;BME280;57143;55.940;37.496;2023-04-27T10:18:50;97088.44;;;21.06;100.00
69848;BME280;57143;55.940;37.496;2023-04-27T10:21:19;97091.25;;;21.22;100.00
69848;BME280;57143;55.940;37.496;2023-04-27T10:23:47;97082.44;;;21.44;100.00
69848;BME280;57143;55.940;37.496;2023-04-27T10:26:22;97141.47;;;21.83;100.00
69848;BME280;57143;55.940;37.496;2023-04-27T10:28:59;97133.97;;;21.83;100.00
69848;BME280;57143;55.940;37.496;2023-04-27T10:31:30;97165.25;;;21.75;100.00
69848;BME280;57143;55.940;37.496;2023-04-27T10:34:08;97180.34;;;21.65;100.00
69848;BME280;57143;55.940;37.496;2023-04-27T10:36:36;97293.44;;;21.41;100.00
69848;BME280;57143;55.940;37.496;2023-04-27T10:39:13;97341.66;;;21.23;100.00
69848;BME280;57143;55.940;37.496;2023-04-27T10:41:48;97435.44;;;21.27;100.00
69848;BME280;57143;55.940;37.496;2023-04-27T10:44:20;97470.97;;;21.40;100.00
69848;BME280;57143;55.940;37.496;2023-04-27T10:46:51;97483.47;;;21.26;100.00
69848;BME280;57143;55.940;37.496;2023-04-27T10:49:19;97548.94;;;21.41;100.00
69848;BME280;57143;55.940;37.496;2023-04-27T10:51:48;97548.06;;;21.61;100.00
69848;BME280;57143;55.940;37.496;2023-04-27T10:54:16;97500.38;;;21.81;100.00
69848;BME280;57143;55.940;37.496;2023-04-27T10:56:43;97640.69;;;21.83;100.00
69848;BME280;57143;55.940;37.496;2023-04-27T10:59:11;97602.31;;;21.57;100.00
69848;BME280;57143;55.940;37.496;2023-04-27T11:01:39;97614.22;;;21.82;100.00
69848;BME280;57143;55.940;37.496;2023-04-27T11:04:07;97586.00;;;21.85;100.00
69848;BME280;57143;55.940;37.496;2023-04-27T11:06:41;97617.13;;;21.85;100.00
69848;BME280;57143;55.940;37.496;2023-04-27T11:09:09;97688.31;;;21.92;100.00
69848;BME280;57143;55.940;37.496;2023-04-27T11:11:37;97702.84;;;22.25;100.00
69848;BME280;57143;55.940;37.496;2023-04-27T11:14:04;97739.47;;;22.34;100.00
69848;BME280;57143;55.940;37.496;2023-04-27T11:16:32;97832.59;;;22.25;100.00
69848;BME280;57143;55.940;37.496;2023-04-27T11:19:04;97870.25;;;21.88;100.00
69848;BME280;57143;55.940;37.496;2023-04-27T11:21:32;97860.47;;;21.91;100.00
69848;BME280;57143;55.940;37.496;2023-04-27T11:24:03;97937.88;;;22.15;100.00
69848;BME280;57143;55.940;37.496;2023-04-27T11:26:31;97923.66;;;22.04;100.00
69848;BME280;57143;55.940;37.496;2023-04-27T11:28:59;97902.84;;;21.86;100.00
69848;BME280;57143;55.940;37.496;2023-04-27T11:31:38;97893.63;;;21.82;100.00
69848;BME280;57143;55.940;37.496;2023-04-27T11:34:08;97869.75;;;21.57;100.00
69848;BME280;57143;55.940;37.496;2023-04-27T11:36:35;97760.91;;;21.34;100.00
69848;BME280;57143;55.940;37.496;2023-04-27T11:39:02;97705.09;;;21.37;100.00
69848;BME280;57143;55.940;37.496;2023-04-27T11:41:33;97599.38;;;21.00;100.00
69848;BME280;57143;55.940;37.496;2023-04-27T11:44:04;97592.34;;;21.11;100.00
69848;BME280;57143;55.940;37.496;2023-04-27T11:46:34;97648.66;;;21.02;100.00
69848;BME280;57143;55.940;37.496;2023-04-27T11:49:02;97670.78;;;21.14;100.00
69848;BME280;57143;55.940;37.496;2023-04-27T11:51:32;97661.41;;;21.06;100.00
69848;BME280;57143;55.940;37.496;2023-04-27T11:54:01;97558.72;;;20.97;100.00
69848;BME280;57143;55.940;37.496;2023-04-27T11:56:36;97540.75;;;21.00;100.00
69848;BME280;57143;55.940;37.496;2023-04-27T11:59:04;97564.44;;;21.13;100.00
69848;BME280;57143;55.940;37.496;2023-04-27T12:01:32;97450.00;;;20.83;100.00
69848;BME280;57143;55.940;37.496;2023-04-27T12:04:00;97429.13;;;20.94;100.00
69848;BME280;57143;55.940;37.496;2023-04-27T12:06:28;97366.63;;;20.61;100.00
69848;BME280;57143;55.940;37.496;2023-04-27T12:08:57;97308.00;;;20.61;100.00
69848;BME280;57143;55.940;37.496;2023-04-27T12:11:25;97245.88;;;20.72;100.00
69848;BME280;57143;55.940;37.496;2023-04-27T12:13:52;97123.81;;;20.44;100.00
69848;BME280;57143;55.940;37.496;2023-04-27T12:16:20;96991.06;;;20.23;100.00
69848;BME280;57143;55.940;37.496;2023-04-27T12:18:48;96948.22;;;20.22;100.00
69848;BME280;57143;55.940;37.496;2023-04-27T12:21:16;96933.19;;;19.83;100.00
69848;BME280;57143;55.940;37.496;2023-04-27T12:23:44;96907.00;;;19.74;100.00
69848;BME280;57143;55.940;37.496;2023-04-27T12:26:12;96897.25;;;19.52;100.00
69848;BME280;57143;55.940;37.496;2023-04-27T12:28:39;96918.09;;;19.53;100.00
69848;BME280;57143;55.940;37.496;2023-04-27T12:31:07;96927.25;;;19.69;100.00
69848;BME280;57143;55.940;37.496;2023-04-27T12:33:34;96947.88;;;19.75;100.00
69848;BME280;57143;55.940;37.496;2023-04-27T12:36:01;96952.66;;;19.90;100.00
69848;BME280;57143;55.940;37.496;2023-04-27T12:38:28;96946.03;;;20.03;100.00
69848;BME280;57143;55.940;37.496;2023-04-27T12:40:55;96964.16;;;20.16;100.00
69848;BME280;57143;55.940;37.496;2023-04-27T12:43:25;96983.59;;;20.11;100.00
69848;BME280;57143;55.940;37.496;2023-04-27T12:45:53;96968.59;;;19.97;100.00
69848;BME280;57143;55.940;37.496;2023-04-27T12:48:20;97008.47;;;20.03;100.00
69848;BME280;57143;55.940;37.496;2023-04-27T12:50:48;97021.66;;;20.21;100.00